createdAt,value
2023-03-28T00:01:52.538Z,70.41
2023-03-28T00:04:22.987Z,70.36
2023-03-28T00:06:52.092Z,70.40
2023-03-28T00:09:20.648Z,70.52
2023-03-28T00:11:48.559Z,70.70
2023-03-28T00:14:16.652Z,70.71
2023-03-28T00:16:46.829Z,70.77
2023-03-28T00:23:36.967Z,70.58
2023-03-28T00:26:08.251Z,70.45
2023-03-28T00:28:36.449Z,70.34
2023-03-28T00:31:11.448Z,70.27
2023-03-28T00:33:39.378Z,70.22
2023-03-28T00:36:10.626Z,70.24
2023-03-28T00:38:38.858Z,70.36
2023-03-28T00:41:10.753Z,70.30
2023-03-28T00:43:43.805Z,70.41
2023-03-28T00:46:38.617Z,70.50
2023-03-28T00:49:22.932Z,70.66
2023-03-28T00:52:02.512Z,70.76
2023-03-28T00:54:34.683Z,70.79
2023-03-28T00:57:07.031Z,70.82
2023-03-28T00:59:37.723Z,70.94
2023-03-28T01:02:06.509Z,71.15
2023-03-28T01:04:49.217Z,71.33
2023-03-28T01:11:32.313Z,71.35
2023-03-28T01:14:04.912Z,71.37
2023-03-28T01:16:33.955Z,71.33
2023-03-28T01:19:04.322Z,71.52
2023-03-28T01:22:23.189Z,71.55
2023-03-28T01:25:28.470Z,71.51
2023-03-28T01:28:16.905Z,71.63
2023-03-28T01:30:51.958Z,71.39
2023-03-28T01:33:48.567Z,71.26
2023-03-28T01:36:35.923Z,71.32
2023-03-28T01:39:09.818Z,71.33
2023-03-28T01:42:05.621Z,71.37
2023-03-28T01:44:44.781Z,71.37
2023-03-28T01:47:36.494Z,71.43
2023-03-28T01:50:19.298Z,71.76
2023-03-28T01:53:13.230Z,72.07
2023-03-28T01:56:08.261Z,72.45
2023-03-28T01:59:03.866Z,72.74
2023-03-28T02:02:05.211Z,72.98
2023-03-28T02:04:35.449Z,73.13
2023-03-28T02:07:05.460Z,73.27
2023-03-28T02:09:37.007Z,73.45
2023-03-28T02:12:12.638Z,73.56
2023-03-28T02:14:48.732Z,73.79
2023-03-28T02:17:17.530Z,73.98
2023-03-28T02:20:09.261Z,74.11
2023-03-28T02:23:03.476Z,74.22
2023-03-28T02:25:32.159Z,74.39
2023-03-28T02:28:05.530Z,74.55
2023-03-28T02:30:34.527Z,74.72
2023-03-28T02:33:07.060Z,74.87
2023-03-28T02:36:21.298Z,75.09
2023-03-28T02:38:56.460Z,75.43
2023-03-28T02:41:40.984Z,75.59
2023-03-28T02:44:23.331Z,75.91
2023-03-28T02:47:21.866Z,76.10
2023-03-28T02:50:00.879Z,76.35
2023-03-28T02:52:35.463Z,76.53
2023-03-28T02:55:29.635Z,76.70
2023-03-28T02:58:23.878Z,76.90
2023-03-28T03:00:52.358Z,76.93
2023-03-28T03:03:21.980Z,76.96
2023-03-28T03:05:50.375Z,77.09
2023-03-28T03:08:18.886Z,77.21
2023-03-28T03:10:49.781Z,77.39
2023-03-28T03:13:17.602Z,77.56
2023-03-28T03:15:54.591Z,77.71
2023-03-28T03:18:23.783Z,77.82
2023-03-28T03:20:53.068Z,77.86
2023-03-28T03:23:21.066Z,77.88
2023-03-28T03:25:51.091Z,77.95
2023-03-28T03:28:19.703Z,78.02
2023-03-28T03:30:47.833Z,78.08
2023-03-28T03:33:16.783Z,78.11
2023-03-28T03:42:02.479Z,78.44
2023-03-28T03:44:30.526Z,78.44
2023-03-28T03:46:58.697Z,78.51
2023-03-28T03:49:27.729Z,78.64
2023-03-28T03:51:56.235Z,78.82
2023-03-28T03:54:27.248Z,78.94
2023-03-28T03:56:55.170Z,79.01
2023-03-28T03:59:23.581Z,79.06
2023-03-28T04:01:51.579Z,79.15
2023-03-28T04:04:19.793Z,79.28
2023-03-28T04:06:47.612Z,79.41
2023-03-28T04:09:17.736Z,79.53
2023-03-28T04:11:47.842Z,79.53
2023-03-28T04:14:18.997Z,79.54
2023-03-28T04:16:52.630Z,79.55
2023-03-28T04:19:20.676Z,79.45
2023-03-28T04:21:48.992Z,79.27
2023-03-28T04:24:21.052Z,78.96
2023-03-28T04:26:56.174Z,78.89
2023-03-28T04:29:30.893Z,78.81
2023-03-28T04:31:59.494Z,78.75
2023-03-28T04:34:31.061Z,78.40
2023-03-28T04:37:03.952Z,78.02
2023-03-28T04:40:40.410Z,77.79
2023-03-28T04:43:29.688Z,77.33
2023-03-28T04:47:20.294Z,76.75
2023-03-28T04:51:24.576Z,76.39
2023-03-28T04:53:52.531Z,76.32
2023-03-28T04:56:19.125Z,76.12
2023-03-28T04:58:47.065Z,75.77
2023-03-28T05:01:14.153Z,75.55
2023-03-28T05:04:01.134Z,75.34
2023-03-28T05:06:31.067Z,75.01
2023-03-28T05:09:01.552Z,74.05
2023-03-28T05:11:28.833Z,73.42
2023-03-28T05:16:29.803Z,71.42
2023-03-28T05:20:32.772Z,71.16
2023-03-28T05:23:44.591Z,71.23
2023-03-28T05:37:59.139Z,66.12
2023-03-28T05:40:54.059Z,62.52
2023-03-28T05:43:26.373Z,57.91
2023-03-28T05:55:10.426Z,63.35
2023-03-28T05:57:38.264Z,63.95
2023-03-28T06:00:10.715Z,64.73
2023-03-28T06:02:46.121Z,65.47
2023-03-28T06:05:17.339Z,65.92
2023-03-28T06:07:46.840Z,65.94
2023-03-28T06:10:16.582Z,66.46
2023-03-28T06:12:50.939Z,66.51
2023-03-28T06:15:20.184Z,65.80
2023-03-28T06:17:53.758Z,66.07
2023-03-28T06:20:22.609Z,67.38
2023-03-28T06:22:52.990Z,67.84
2023-03-28T06:25:25.125Z,68.00
2023-03-28T06:27:53.583Z,68.10
2023-03-28T06:30:22.207Z,68.67
2023-03-28T06:32:52.388Z,69.12
2023-03-28T06:35:21.372Z,68.73
2023-03-28T06:37:50.547Z,67.98
2023-03-28T06:42:01.926Z,68.27
2023-03-28T06:45:35.711Z,68.93
2023-03-28T06:48:05.323Z,69.06
2023-03-28T06:50:37.654Z,69.30
2023-03-28T06:53:08.643Z,69.79
2023-03-28T07:07:10.075Z,73.24
2023-03-28T07:25:05.317Z,76.16
2023-03-28T07:27:33.336Z,76.34
2023-03-28T07:33:30.853Z,76.18
2023-03-28T07:36:12.774Z,76.84
2023-03-28T07:40:30.103Z,76.88
2023-03-28T07:55:09.667Z,75.86
2023-03-28T07:57:42.068Z,75.82
2023-03-28T08:00:12.670Z,75.95
2023-03-28T08:02:45.082Z,76.15
2023-03-28T08:05:12.317Z,76.27
2023-03-28T08:07:41.843Z,76.19
2023-03-28T08:10:09.094Z,76.21
2023-03-28T08:12:37.205Z,76.05
2023-03-28T08:19:10.091Z,75.92
2023-03-28T08:21:39.455Z,75.73
2023-03-28T08:24:08.783Z,75.68
2023-03-28T08:26:36.537Z,75.58
2023-03-28T08:29:04.486Z,75.02
2023-03-28T08:31:31.788Z,74.61
2023-03-28T08:33:58.408Z,74.37
2023-03-28T08:36:27.218Z,73.54
2023-03-28T08:39:05.688Z,72.87
2023-03-28T08:47:53.114Z,69.17
2023-03-28T08:50:29.560Z,68.08
2023-03-28T08:52:58.420Z,66.39
2023-03-28T08:55:38.548Z,62.94
2023-03-28T08:58:11.101Z,61.27
2023-03-28T09:00:39.517Z,59.82
2023-03-28T09:03:16.311Z,57.37
2023-03-28T09:06:31.161Z,56.69
2023-03-28T09:09:13.515Z,58.18
2023-03-28T09:11:54.329Z,56.55
2023-03-28T09:14:56.128Z,54.31
2023-03-28T09:17:41.493Z,52.76
2023-03-28T09:20:33.678Z,48.83
2023-03-28T09:23:13.849Z,43.48
2023-03-28T09:30:25.329Z,44.40
2023-03-28T09:32:58.863Z,44.85
2023-03-28T09:39:52.426Z,50.49
2023-03-28T09:43:30.815Z,56.93
2023-03-28T09:47:15.136Z,62.42
2023-03-28T09:49:45.217Z,65.09
2023-03-28T09:52:19.728Z,68.00
2023-03-28T09:54:48.995Z,70.56
2023-03-28T09:57:16.840Z,72.09
2023-03-28T10:13:25.629Z,72.03
2023-03-28T10:16:06.376Z,70.69
2023-03-28T10:30:35.485Z,70.33
2023-03-28T10:47:46.384Z,67.51
2023-03-28T10:51:09.076Z,67.48
2023-03-28T10:54:20.286Z,67.23
2023-03-28T10:56:57.792Z,67.88
2023-03-28T11:04:24.638Z,67.40
2023-03-28T11:18:03.377Z,64.88
2023-03-28T11:21:30.953Z,64.44
2023-03-28T11:24:32.593Z,62.14
2023-03-28T11:27:14.795Z,61.78
2023-03-28T11:29:54.448Z,61.44
2023-03-28T11:32:29.747Z,61.39
2023-03-28T11:35:03.054Z,60.89
2023-03-28T11:37:42.004Z,61.11
2023-03-28T11:40:17.909Z,61.06
2023-03-28T11:42:48.928Z,61.50
2023-03-28T11:45:46.703Z,61.75
2023-03-28T11:48:33.923Z,61.40
2023-03-28T11:51:18.831Z,61.44
2023-03-28T11:53:55.618Z,61.30
2023-03-28T11:56:50.732Z,60.83
2023-03-28T11:59:24.875Z,58.44
2023-03-28T12:02:03.464Z,56.90
2023-03-28T12:04:37.870Z,54.23
2023-03-28T12:07:27.924Z,54.36
2023-03-28T12:10:17.733Z,55.31
2023-03-28T12:12:56.476Z,56.84
2023-03-28T12:15:33.158Z,58.12
2023-03-28T12:18:12.576Z,59.72
2023-03-28T12:21:00.192Z,59.86
2023-03-28T12:23:41.354Z,59.24
2023-03-28T12:26:44.326Z,58.08
2023-03-28T12:29:25.599Z,56.99
2023-03-28T12:32:38.448Z,55.14
2023-03-28T12:35:24.840Z,55.45
2023-03-28T12:38:14.767Z,53.40
2023-03-28T12:40:54.334Z,52.69
2023-03-28T12:43:42.281Z,53.53
2023-03-28T12:46:15.476Z,53.44
2023-03-28T12:49:37.463Z,52.53
2023-03-28T12:52:11.817Z,50.92
2023-03-28T12:55:04.933Z,49.31
2023-03-28T12:57:56.884Z,49.34
2023-03-28T13:01:10.053Z,50.01
2023-03-28T13:04:29.379Z,48.50
2023-03-28T13:07:38.912Z,47.58
2023-03-28T13:11:06.903Z,47.25
2023-03-28T13:13:59.050Z,45.02
2023-03-28T13:18:20.467Z,44.06
2023-03-28T13:21:57.660Z,44.83
2023-03-28T13:26:08.768Z,45.02
2023-03-28T13:29:17.910Z,46.40
2023-03-28T13:33:28.451Z,46.78
2023-03-28T13:36:36.512Z,44.70
2023-03-28T13:40:48.715Z,44.42
2023-03-28T13:43:25.066Z,44.16
2023-03-28T13:46:05.990Z,43.42
2023-03-28T13:48:52.995Z,41.57
2023-03-28T13:51:45.942Z,38.58
2023-03-28T13:54:29.737Z,35.72
2023-03-28T13:57:04.311Z,33.46
2023-03-28T13:59:39.886Z,34.07
2023-03-28T14:02:34.694Z,33.49
2023-03-28T14:05:29.350Z,34.14
2023-03-28T14:08:17.566Z,37.82
2023-03-28T14:10:51.554Z,40.80
2023-03-28T14:13:49.635Z,43.76
2023-03-28T14:16:20.166Z,44.68
2023-03-28T14:18:56.831Z,45.15
2023-03-28T14:21:25.593Z,45.40
2023-03-28T14:24:49.745Z,44.39
2023-03-28T14:27:55.781Z,44.54
2023-03-28T14:30:30.133Z,44.86
2023-03-28T14:33:07.803Z,45.38
2023-03-28T14:35:37.440Z,44.63
2023-03-28T14:38:08.000Z,43.97
2023-03-28T14:41:26.649Z,43.29
2023-03-28T15:10:08.897Z,39.40
2023-03-28T15:13:11.547Z,39.00
2023-03-28T15:16:26.684Z,35.97
2023-03-28T15:20:21.133Z,33.03
2023-03-28T15:23:57.560Z,32.37
2023-03-28T15:26:35.218Z,31.61
2023-03-28T15:29:06.829Z,31.84
2023-03-28T15:31:40.400Z,31.38
2023-03-28T15:34:20.263Z,31.55
2023-03-28T15:36:57.778Z,33.48
2023-03-28T15:39:29.827Z,34.26
2023-03-28T15:48:36.505Z,39.94
2023-03-28T15:51:08.116Z,41.13
2023-03-28T15:53:38.541Z,42.78
2023-03-28T15:56:29.722Z,44.08
2023-03-28T15:59:25.528Z,45.04
2023-03-28T16:02:21.444Z,46.09
2023-03-28T16:05:05.278Z,46.84
2023-03-28T16:07:50.146Z,47.83
2023-03-28T16:10:23.898Z,48.56
2023-03-28T16:12:54.421Z,49.19
2023-03-28T16:15:22.279Z,49.72
2023-03-28T16:17:52.012Z,49.87
2023-03-28T16:20:23.274Z,50.67
2023-03-28T16:22:51.315Z,52.62
2023-03-28T16:25:19.965Z,53.99
2023-03-28T16:27:53.387Z,55.30
2023-03-28T16:30:31.903Z,56.27
2023-03-28T16:32:59.884Z,57.93
2023-03-28T16:35:29.043Z,59.53
2023-03-28T16:37:57.052Z,60.79
2023-03-28T16:40:25.031Z,61.39
2023-03-28T16:44:25.507Z,62.68
2023-03-28T16:48:02.450Z,63.00
2023-03-28T16:51:45.152Z,63.96
2023-03-28T17:05:46.521Z,63.93
2023-03-28T17:08:17.409Z,64.24
2023-03-28T17:10:45.788Z,64.47
2023-03-28T17:13:17.751Z,64.64
2023-03-28T17:19:48.394Z,65.43
2023-03-28T17:28:27.756Z,65.19
2023-03-28T17:31:01.717Z,64.97
2023-03-28T17:33:36.611Z,64.68
2023-03-28T17:36:22.433Z,64.80
2023-03-28T17:39:20.738Z,64.68
2023-03-28T17:43:12.029Z,65.58
2023-03-28T17:45:40.471Z,65.76
2023-03-28T17:48:08.604Z,66.01
2023-03-28T17:50:37.651Z,66.36
2023-03-28T17:53:06.925Z,66.82
2023-03-28T17:55:34.939Z,66.85
2023-03-28T17:59:27.182Z,66.75
2023-03-28T18:01:55.592Z,66.20
2023-03-28T18:04:25.947Z,65.98
2023-03-28T18:07:01.714Z,66.16
2023-03-28T18:09:30.070Z,66.20
2023-03-28T18:11:58.438Z,66.36
2023-03-28T18:14:26.935Z,66.31
2023-03-28T18:16:56.436Z,66.51
2023-03-28T18:19:27.143Z,66.75
2023-03-28T18:21:58.649Z,67.09
2023-03-28T18:24:26.798Z,67.19
2023-03-28T18:26:54.990Z,67.23
2023-03-28T18:29:23.159Z,67.57
2023-03-28T18:31:51.556Z,67.44
2023-03-28T18:34:20.615Z,67.46
2023-03-28T18:37:35.667Z,67.68
2023-03-28T18:40:59.102Z,67.84
2023-03-28T18:43:27.424Z,68.01
2023-03-28T18:45:55.504Z,67.90
2023-03-28T18:48:23.545Z,67.83
2023-03-28T18:50:55.329Z,68.04
2023-03-28T18:53:23.209Z,68.33
2023-03-28T18:55:53.208Z,68.49
2023-03-28T18:58:25.447Z,68.65
2023-03-28T19:00:57.244Z,69.03
2023-03-28T19:03:41.825Z,68.99
2023-03-28T19:06:12.312Z,68.86
2023-03-28T19:09:58.643Z,69.02
2023-03-28T19:14:00.789Z,69.22
2023-03-28T19:28:11.718Z,68.63
2023-03-28T19:41:30.061Z,68.07
2023-03-28T19:44:16.225Z,68.24
2023-03-28T20:02:01.620Z,67.69
2023-03-28T20:15:43.172Z,67.55
2023-03-28T20:33:58.890Z,67.58
2023-03-28T20:48:05.638Z,66.25
2023-03-28T20:50:54.015Z,66.22
2023-03-28T20:53:22.541Z,66.19
2023-03-28T20:56:09.077Z,66.00
2023-03-28T20:58:39.398Z,66.10
2023-03-28T21:01:09.661Z,65.94
2023-03-28T21:04:04.616Z,65.92
2023-03-28T21:06:38.145Z,65.83
2023-03-28T21:09:08.906Z,65.18
2023-03-28T21:11:38.692Z,65.37
2023-03-28T21:14:08.341Z,65.18
2023-03-28T21:16:37.805Z,64.65
2023-03-28T21:19:06.252Z,64.56
2023-03-28T21:21:57.267Z,64.56
2023-03-28T21:24:25.271Z,64.05
2023-03-28T21:33:40.907Z,63.22
2023-03-28T21:36:54.230Z,62.92
2023-03-28T21:40:41.086Z,61.78
2023-03-28T21:43:11.467Z,61.39
2023-03-28T21:45:39.387Z,61.52
2023-03-28T21:48:07.495Z,61.79
2023-03-28T21:50:38.789Z,61.63
2023-03-28T21:55:59.177Z,61.38
2023-03-28T22:09:45.599Z,60.13
2023-03-28T22:23:06.635Z,60.20
2023-03-28T22:25:56.605Z,60.39
2023-03-28T22:29:36.261Z,60.24
2023-03-28T22:33:24.105Z,59.67
2023-03-28T22:36:55.003Z,60.19
2023-03-28T22:40:34.872Z,60.40
2023-03-28T22:44:21.311Z,60.34
2023-03-28T22:48:00.627Z,60.61
2023-03-28T22:51:33.084Z,60.66
2023-03-28T22:54:03.217Z,60.91
2023-03-28T22:56:31.157Z,60.86
2023-03-28T22:59:01.538Z,61.00
2023-03-28T23:01:30.636Z,60.93
2023-03-28T23:03:58.549Z,60.80
2023-03-28T23:18:11.370Z,61.34
2023-03-28T23:21:18.932Z,61.34
2023-03-28T23:24:38.089Z,61.55
2023-03-28T23:28:20.392Z,61.62
2023-03-28T23:31:59.928Z,61.74
2023-03-28T23:35:34.616Z,61.58
2023-03-28T23:39:09.227Z,61.64
2023-03-28T23:42:48.248Z,61.99
2023-03-28T23:47:18.298Z,62.28
2023-03-28T23:50:54.842Z,62.30
2023-03-28T23:54:38.398Z,62.48
2023-03-28T23:58:29.239Z,62.44
